This is the latest recevied weather packets stored in our database for station/object KC9DRE. If no packets are shown the sender has not sent any weather packets the latest 10 day(s).
| Time | Temp. | Humidity | Pressure | Rain* | Wind** | Luminosity | Snow |
|---|---|---|---|---|---|---|---|
| 1787872470 | 26.11° C | 74% | 1015.2 hPa | 0 mm | - | 44 W/m² | - |
| 1787872169 | 26.67° C | 71% | 1015.3 hPa | 0 mm | - | 46 W/m² | - |
| 1787871869 | 27.78° C | 69% | 1015.2 hPa | 0 mm | - | 49 W/m² | - |
| 1787871564 | 28.33° C | 66% | 1015.4 hPa | 0 mm | - | 50 W/m² | - |
| 1787871260 | 28.89° C | 57% | 1015.3 hPa | 0 mm | - | 53 W/m² | - |
| 1787870955 | 29.44° C | 56% | 1015.3 hPa | 0 mm | - | 62 W/m² | - |
| 1787870654 | 30.56° C | 54% | 1015.2 hPa | 0 mm | - | 137 W/m² | - |
| 1787870349 | 30.56° C | 55% | 1015.4 hPa | 0 mm | - | 153 W/m² | - |
| 1787870045 | 30.56° C | 55% | 1015.2 hPa | 0 mm | - | 167 W/m² | - |
| 1787869743 | 30.56° C | 56% | 1015.2 hPa | 0 mm | - | 177 W/m² | - |
| 1787869438 | 30° C | 55% | 1015.2 hPa | 0 mm | - | 195 W/m² | - |
| 1787869138 | 30° C | 55% | 1015 hPa | 0 mm | - | 207 W/m² | - |
| 1787868837 | 30° C | 56% | 1015.2 hPa | 0 mm | - | 224 W/m² | - |
| 1787868535 | 30.56° C | 53% | 1015.3 hPa | 0 mm | - | 240 W/m² | - |
| 1787868235 | 30.56° C | 56% | 1015.1 hPa | 0 mm | - | 257 W/m² | - |
| 1787867930 | 30.56° C | 55% | 1015.3 hPa | 0 mm | - | 267 W/m² | - |
| 1787867626 | 30.56° C | 55% | 1015.2 hPa | 0 mm | - | 289 W/m² | - |
| 1787867326 | 31.11° C | 54% | 1015.3 hPa | 0 mm | - | 311 W/m² | - |
| 1787867022 | 30.56° C | 52% | 1015.1 hPa | 0 mm | - | 329 W/m² | - |
| 1787866717 | 30.56° C | 56% | 1015.3 hPa | 0 mm | - | 348 W/m² | - |
| 1787866416 | 30.56° C | 53% | 1015.4 hPa | 0 mm | - | 368 W/m² | - |
| 1787866110 | 30° C | 60% | 1015.4 hPa | 0 mm | - | 426 W/m² | - |
| 1787865805 | 30° C | 58% | 1015.4 hPa | 0 mm | - | 449 W/m² | - |
| 1787865501 | 30° C | 58% | 1015.3 hPa | 0 mm | - | 485 W/m² | - |
| 1787865195 | 30.56° C | 56% | 1015.3 hPa | 0 mm | - | 279 W/m² | - |
* Rain latest hour (hover to see other rain measurements)
** Current wind speed in m/s (hover to see current wind gust speed)